sensor_id;sensor_type;location;lat;lon;timestamp;P1;durP1;ratioP1;P2;durP2;ratioP2
69890;SDS011;57170;43.964;21.262;2024-03-08T00:02:23;26.50;;;21.50;;
69890;SDS011;57170;43.964;21.262;2024-03-08T00:04:49;26.08;;;21.52;;
69890;SDS011;57170;43.964;21.262;2024-03-08T00:07:15;29.55;;;23.35;;
69890;SDS011;57170;43.964;21.262;2024-03-08T00:09:42;37.38;;;27.35;;
69890;SDS011;57170;43.964;21.262;2024-03-08T00:12:08;27.45;;;21.35;;
69890;SDS011;57170;43.964;21.262;2024-03-08T00:14:34;21.92;;;18.25;;
69890;SDS011;57170;43.964;21.262;2024-03-08T00:17:02;28.52;;;22.58;;
69890;SDS011;57170;43.964;21.262;2024-03-08T00:19:28;38.80;;;29.27;;
69890;SDS011;57170;43.964;21.262;2024-03-08T00:21:54;45.60;;;32.60;;
69890;SDS011;57170;43.964;21.262;2024-03-08T00:24:20;33.78;;;26.17;;
69890;SDS011;57170;43.964;21.262;2024-03-08T00:26:50;32.50;;;24.63;;
69890;SDS011;57170;43.964;21.262;2024-03-08T00:29:16;33.90;;;24.05;;
69890;SDS011;57170;43.964;21.262;2024-03-08T00:31:42;22.50;;;18.05;;
69890;SDS011;57170;43.964;21.262;2024-03-08T00:34:08;21.67;;;17.42;;
69890;SDS011;57170;43.964;21.262;2024-03-08T00:36:36;22.92;;;18.50;;
69890;SDS011;57170;43.964;21.262;2024-03-08T00:39:03;21.33;;;17.05;;
69890;SDS011;57170;43.964;21.262;2024-03-08T00:41:31;22.90;;;16.83;;
69890;SDS011;57170;43.964;21.262;2024-03-08T00:43:58;21.05;;;15.40;;
69890;SDS011;57170;43.964;21.262;2024-03-08T00:46:24;18.80;;;16.35;;
69890;SDS011;57170;43.964;21.262;2024-03-08T00:48:50;18.50;;;15.45;;
69890;SDS011;57170;43.964;21.262;2024-03-08T00:51:16;19.33;;;15.27;;
69890;SDS011;57170;43.964;21.262;2024-03-08T00:53:43;17.73;;;14.40;;
69890;SDS011;57170;43.964;21.262;2024-03-08T00:56:09;18.17;;;14.60;;
69890;SDS011;57170;43.964;21.262;2024-03-08T00:58:38;19.30;;;15.48;;
69890;SDS011;57170;43.964;21.262;2024-03-08T01:01:05;17.73;;;14.75;;
69890;SDS011;57170;43.964;21.262;2024-03-08T01:03:31;16.95;;;14.27;;
69890;SDS011;57170;43.964;21.262;2024-03-08T01:05:59;16.88;;;13.43;;
69890;SDS011;57170;43.964;21.262;2024-03-08T01:08:28;16.33;;;13.55;;
69890;SDS011;57170;43.964;21.262;2024-03-08T01:10:54;11.02;;;8.48;;
69890;SDS011;57170;43.964;21.262;2024-03-08T01:13:20;7.32;;;6.22;;
69890;SDS011;57170;43.964;21.262;2024-03-08T01:15:46;8.05;;;5.85;;
69890;SDS011;57170;43.964;21.262;2024-03-08T01:18:12;8.32;;;6.07;;
69890;SDS011;57170;43.964;21.262;2024-03-08T01:20:38;8.02;;;5.97;;
69890;SDS011;57170;43.964;21.262;2024-03-08T01:23:06;8.43;;;6.80;;
69890;SDS011;57170;43.964;21.262;2024-03-08T01:25:33;9.65;;;7.13;;
69890;SDS011;57170;43.964;21.262;2024-03-08T01:27:59;9.27;;;7.25;;
69890;SDS011;57170;43.964;21.262;2024-03-08T01:30:25;9.15;;;7.78;;
69890;SDS011;57170;43.964;21.262;2024-03-08T01:32:51;8.63;;;7.57;;
69890;SDS011;57170;43.964;21.262;2024-03-08T01:35:18;11.95;;;9.43;;
69890;SDS011;57170;43.964;21.262;2024-03-08T01:37:46;10.85;;;8.05;;
69890;SDS011;57170;43.964;21.262;2024-03-08T01:40:14;13.25;;;10.52;;
69890;SDS011;57170;43.964;21.262;2024-03-08T01:42:41;14.70;;;10.57;;
69890;SDS011;57170;43.964;21.262;2024-03-08T01:45:08;13.73;;;10.32;;
69890;SDS011;57170;43.964;21.262;2024-03-08T01:47:34;14.13;;;11.10;;
69890;SDS011;57170;43.964;21.262;2024-03-08T01:50:01;16.50;;;12.93;;
69890;SDS011;57170;43.964;21.262;2024-03-08T01:52:31;19.58;;;13.07;;
69890;SDS011;57170;43.964;21.262;2024-03-08T01:55:01;18.45;;;12.90;;
69890;SDS011;57170;43.964;21.262;2024-03-08T01:57:29;18.58;;;14.02;;
69890;SDS011;57170;43.964;21.262;2024-03-08T01:59:58;19.33;;;15.70;;
69890;SDS011;57170;43.964;21.262;2024-03-08T02:02:30;25.02;;;16.92;;
69890;SDS011;57170;43.964;21.262;2024-03-08T02:04:57;23.33;;;15.75;;
69890;SDS011;57170;43.964;21.262;2024-03-08T02:07:24;26.85;;;17.13;;
69890;SDS011;57170;43.964;21.262;2024-03-08T02:09:50;22.58;;;18.10;;
69890;SDS011;57170;43.964;21.262;2024-03-08T02:12:16;25.02;;;17.85;;
69890;SDS011;57170;43.964;21.262;2024-03-08T02:14:45;22.75;;;15.90;;
69890;SDS011;57170;43.964;21.262;2024-03-08T02:17:12;23.73;;;16.77;;
69890;SDS011;57170;43.964;21.262;2024-03-08T02:19:38;22.98;;;17.02;;
69890;SDS011;57170;43.964;21.262;2024-03-08T02:22:05;25.15;;;16.35;;
69890;SDS011;57170;43.964;21.262;2024-03-08T02:24:32;27.50;;;18.92;;
69890;SDS011;57170;43.964;21.262;2024-03-08T02:26:58;22.73;;;17.80;;
69890;SDS011;57170;43.964;21.262;2024-03-08T02:29:24;26.65;;;18.95;;
69890;SDS011;57170;43.964;21.262;2024-03-08T02:31:51;24.73;;;16.60;;
69890;SDS011;57170;43.964;21.262;2024-03-08T02:34:17;24.02;;;17.13;;
69890;SDS011;57170;43.964;21.262;2024-03-08T02:36:43;22.20;;;16.67;;
69890;SDS011;57170;43.964;21.262;2024-03-08T02:39:09;22.75;;;16.38;;
69890;SDS011;57170;43.964;21.262;2024-03-08T02:41:36;21.40;;;16.90;;
69890;SDS011;57170;43.964;21.262;2024-03-08T02:44:02;23.45;;;16.05;;
69890;SDS011;57170;43.964;21.262;2024-03-08T02:46:29;23.48;;;15.68;;
69890;SDS011;57170;43.964;21.262;2024-03-08T02:48:55;21.88;;;16.48;;
69890;SDS011;57170;43.964;21.262;2024-03-08T02:51:21;21.60;;;16.77;;
69890;SDS011;57170;43.964;21.262;2024-03-08T02:53:47;21.08;;;14.90;;
69890;SDS011;57170;43.964;21.262;2024-03-08T02:56:14;24.95;;;15.60;;
69890;SDS011;57170;43.964;21.262;2024-03-08T02:58:41;23.58;;;16.58;;
69890;SDS011;57170;43.964;21.262;2024-03-08T03:01:08;20.83;;;15.20;;
69890;SDS011;57170;43.964;21.262;2024-03-08T03:03:35;21.05;;;15.57;;
69890;SDS011;57170;43.964;21.262;2024-03-08T03:06:02;22.50;;;16.70;;
69890;SDS011;57170;43.964;21.262;2024-03-08T03:08:28;23.63;;;16.23;;
69890;SDS011;57170;43.964;21.262;2024-03-08T03:10:54;25.38;;;17.63;;
69890;SDS011;57170;43.964;21.262;2024-03-08T03:13:21;21.73;;;15.57;;
69890;SDS011;57170;43.964;21.262;2024-03-08T03:15:48;25.88;;;18.75;;
69890;SDS011;57170;43.964;21.262;2024-03-08T03:18:14;21.60;;;17.83;;
69890;SDS011;57170;43.964;21.262;2024-03-08T03:20:41;27.83;;;18.30;;
69890;SDS011;57170;43.964;21.262;2024-03-08T03:23:08;30.65;;;20.35;;
69890;SDS011;57170;43.964;21.262;2024-03-08T03:25:34;28.52;;;18.70;;
69890;SDS011;57170;43.964;21.262;2024-03-08T03:28:01;32.75;;;21.25;;
69890;SDS011;57170;43.964;21.262;2024-03-08T03:30:27;31.13;;;21.05;;
69890;SDS011;57170;43.964;21.262;2024-03-08T03:32:58;29.92;;;20.60;;
69890;SDS011;57170;43.964;21.262;2024-03-08T03:35:26;28.00;;;21.27;;
69890;SDS011;57170;43.964;21.262;2024-03-08T03:37:52;32.03;;;21.30;;
69890;SDS011;57170;43.964;21.262;2024-03-08T03:40:47;32.65;;;23.08;;
69890;SDS011;57170;43.964;21.262;2024-03-08T03:43:13;28.85;;;20.05;;
69890;SDS011;57170;43.964;21.262;2024-03-08T03:45:39;26.35;;;18.23;;
69890;SDS011;57170;43.964;21.262;2024-03-08T03:48:06;27.98;;;19.23;;
69890;SDS011;57170;43.964;21.262;2024-03-08T03:50:36;26.30;;;18.05;;
69890;SDS011;57170;43.964;21.262;2024-03-08T03:53:02;21.40;;;15.90;;
69890;SDS011;57170;43.964;21.262;2024-03-08T03:55:28;24.10;;;16.55;;
69890;SDS011;57170;43.964;21.262;2024-03-08T03:57:55;22.95;;;17.33;;
69890;SDS011;57170;43.964;21.262;2024-03-08T04:00:21;26.10;;;19.25;;
69890;SDS011;57170;43.964;21.262;2024-03-08T04:02:47;29.70;;;20.23;;
69890;SDS011;57170;43.964;21.262;2024-03-08T04:05:13;30.17;;;21.73;;
69890;SDS011;57170;43.964;21.262;2024-03-08T04:07:40;32.08;;;22.30;;
69890;SDS011;57170;43.964;21.262;2024-03-08T04:10:06;30.17;;;22.63;;
69890;SDS011;57170;43.964;21.262;2024-03-08T04:12:33;32.70;;;22.30;;
69890;SDS011;57170;43.964;21.262;2024-03-08T04:14:59;33.05;;;22.70;;
69890;SDS011;57170;43.964;21.262;2024-03-08T04:17:25;35.33;;;23.63;;
69890;SDS011;57170;43.964;21.262;2024-03-08T04:19:51;27.17;;;21.15;;
69890;SDS011;57170;43.964;21.262;2024-03-08T04:22:18;29.63;;;22.08;;
69890;SDS011;57170;43.964;21.262;2024-03-08T04:24:44;28.65;;;21.15;;
69890;SDS011;57170;43.964;21.262;2024-03-08T04:27:11;30.92;;;21.77;;
69890;SDS011;57170;43.964;21.262;2024-03-08T04:29:37;31.40;;;21.15;;
69890;SDS011;57170;43.964;21.262;2024-03-08T04:32:03;28.23;;;19.33;;
69890;SDS011;57170;43.964;21.262;2024-03-08T04:34:33;27.13;;;20.48;;
69890;SDS011;57170;43.964;21.262;2024-03-08T04:37:02;31.13;;;20.48;;
69890;SDS011;57170;43.964;21.262;2024-03-08T04:39:32;33.15;;;21.95;;
69890;SDS011;57170;43.964;21.262;2024-03-08T04:41:59;29.20;;;20.55;;
69890;SDS011;57170;43.964;21.262;2024-03-08T04:44:28;28.08;;;19.50;;
69890;SDS011;57170;43.964;21.262;2024-03-08T04:46:54;27.85;;;20.70;;
69890;SDS011;57170;43.964;21.262;2024-03-08T04:49:20;27.40;;;20.63;;
69890;SDS011;57170;43.964;21.262;2024-03-08T04:51:47;26.50;;;20.30;;
69890;SDS011;57170;43.964;21.262;2024-03-08T04:54:14;27.25;;;19.77;;
69890;SDS011;57170;43.964;21.262;2024-03-08T04:56:40;27.20;;;19.67;;
69890;SDS011;57170;43.964;21.262;2024-03-08T04:59:06;29.77;;;21.25;;
69890;SDS011;57170;43.964;21.262;2024-03-08T05:01:33;32.03;;;21.65;;
69890;SDS011;57170;43.964;21.262;2024-03-08T05:04:03;25.17;;;19.55;;
69890;SDS011;57170;43.964;21.262;2024-03-08T05:06:29;28.38;;;21.73;;
69890;SDS011;57170;43.964;21.262;2024-03-08T05:08:55;30.30;;;20.20;;
69890;SDS011;57170;43.964;21.262;2024-03-08T05:11:21;27.58;;;20.42;;
69890;SDS011;57170;43.964;21.262;2024-03-08T05:13:48;25.98;;;18.85;;
69890;SDS011;57170;43.964;21.262;2024-03-08T05:16:14;28.73;;;21.15;;
69890;SDS011;57170;43.964;21.262;2024-03-08T05:18:40;26.33;;;20.48;;
69890;SDS011;57170;43.964;21.262;2024-03-08T05:21:07;26.50;;;19.85;;
69890;SDS011;57170;43.964;21.262;2024-03-08T05:23:34;25.40;;;19.30;;
69890;SDS011;57170;43.964;21.262;2024-03-08T05:26:00;30.25;;;20.20;;
69890;SDS011;57170;43.964;21.262;2024-03-08T05:28:26;31.58;;;21.35;;
69890;SDS011;57170;43.964;21.262;2024-03-08T05:30:52;32.53;;;21.20;;
69890;SDS011;57170;43.964;21.262;2024-03-08T05:33:21;28.15;;;20.20;;
69890;SDS011;57170;43.964;21.262;2024-03-08T05:35:48;25.98;;;20.02;;
69890;SDS011;57170;43.964;21.262;2024-03-08T05:38:14;31.40;;;20.40;;
69890;SDS011;57170;43.964;21.262;2024-03-08T05:40:41;27.17;;;20.08;;
69890;SDS011;57170;43.964;21.262;2024-03-08T05:43:08;25.60;;;18.63;;
69890;SDS011;57170;43.964;21.262;2024-03-08T05:45:34;25.15;;;18.40;;
69890;SDS011;57170;43.964;21.262;2024-03-08T05:48:00;25.58;;;18.50;;
69890;SDS011;57170;43.964;21.262;2024-03-08T05:50:26;33.95;;;22.40;;
69890;SDS011;57170;43.964;21.262;2024-03-08T05:52:52;27.70;;;20.48;;
69890;SDS011;57170;43.964;21.262;2024-03-08T05:55:18;26.60;;;20.90;;
69890;SDS011;57170;43.964;21.262;2024-03-08T05:57:46;33.17;;;22.48;;
69890;SDS011;57170;43.964;21.262;2024-03-08T06:00:13;32.85;;;22.52;;
69890;SDS011;57170;43.964;21.262;2024-03-08T06:02:40;27.73;;;19.83;;
69890;SDS011;57170;43.964;21.262;2024-03-08T06:05:10;29.02;;;20.10;;
69890;SDS011;57170;43.964;21.262;2024-03-08T06:07:36;31.38;;;21.52;;
69890;SDS011;57170;43.964;21.262;2024-03-08T06:10:09;25.42;;;19.73;;
69890;SDS011;57170;43.964;21.262;2024-03-08T06:12:36;27.65;;;20.77;;
69890;SDS011;57170;43.964;21.262;2024-03-08T06:15:07;27.08;;;21.25;;
69890;SDS011;57170;43.964;21.262;2024-03-08T06:17:34;34.35;;;21.38;;
69890;SDS011;57170;43.964;21.262;2024-03-08T06:20:01;27.85;;;21.65;;
69890;SDS011;57170;43.964;21.262;2024-03-08T06:22:28;29.40;;;21.50;;
69890;SDS011;57170;43.964;21.262;2024-03-08T06:24:55;27.92;;;21.85;;
69890;SDS011;57170;43.964;21.262;2024-03-08T06:27:22;27.42;;;20.67;;
69890;SDS011;57170;43.964;21.262;2024-03-08T06:29:48;30.20;;;21.02;;
69890;SDS011;57170;43.964;21.262;2024-03-08T06:32:14;29.55;;;21.30;;
69890;SDS011;57170;43.964;21.262;2024-03-08T06:34:40;30.65;;;21.55;;
69890;SDS011;57170;43.964;21.262;2024-03-08T06:37:07;31.65;;;23.75;;
69890;SDS011;57170;43.964;21.262;2024-03-08T06:39:33;29.65;;;22.05;;
69890;SDS011;57170;43.964;21.262;2024-03-08T06:42:00;26.73;;;20.20;;
69890;SDS011;57170;43.964;21.262;2024-03-08T06:44:27;26.23;;;19.27;;
69890;SDS011;57170;43.964;21.262;2024-03-08T06:46:53;25.13;;;17.88;;
69890;SDS011;57170;43.964;21.262;2024-03-08T06:49:19;22.77;;;18.02;;
69890;SDS011;57170;43.964;21.262;2024-03-08T06:51:45;22.77;;;18.13;;
69890;SDS011;57170;43.964;21.262;2024-03-08T06:54:11;23.17;;;17.38;;
69890;SDS011;57170;43.964;21.262;2024-03-08T06:56:37;19.63;;;16.55;;
69890;SDS011;57170;43.964;21.262;2024-03-08T06:59:04;18.13;;;15.13;;
69890;SDS011;57170;43.964;21.262;2024-03-08T07:01:30;19.20;;;15.27;;
69890;SDS011;57170;43.964;21.262;2024-03-08T07:03:57;20.80;;;16.05;;
69890;SDS011;57170;43.964;21.262;2024-03-08T07:06:23;16.85;;;15.07;;
69890;SDS011;57170;43.964;21.262;2024-03-08T07:08:50;18.27;;;14.52;;
69890;SDS011;57170;43.964;21.262;2024-03-08T07:11:16;16.30;;;13.70;;
69890;SDS011;57170;43.964;21.262;2024-03-08T07:13:44;16.75;;;13.38;;
69890;SDS011;57170;43.964;21.262;2024-03-08T07:16:10;14.98;;;12.88;;
69890;SDS011;57170;43.964;21.262;2024-03-08T07:18:37;16.00;;;12.00;;
69890;SDS011;57170;43.964;21.262;2024-03-08T07:21:08;11.75;;;10.52;;
69890;SDS011;57170;43.964;21.262;2024-03-08T07:23:35;12.05;;;9.98;;
69890;SDS011;57170;43.964;21.262;2024-03-08T07:26:20;9.88;;;8.82;;
69890;SDS011;57170;43.964;21.262;2024-03-08T07:28:46;9.43;;;7.47;;
69890;SDS011;57170;43.964;21.262;2024-03-08T07:31:12;9.43;;;7.72;;
69890;SDS011;57170;43.964;21.262;2024-03-08T07:33:41;8.60;;;7.78;;
69890;SDS011;57170;43.964;21.262;2024-03-08T07:36:07;8.93;;;7.80;;
69890;SDS011;57170;43.964;21.262;2024-03-08T07:38:34;10.10;;;8.55;;
69890;SDS011;57170;43.964;21.262;2024-03-08T07:41:00;10.65;;;8.48;;
69890;SDS011;57170;43.964;21.262;2024-03-08T07:43:26;10.07;;;8.65;;
69890;SDS011;57170;43.964;21.262;2024-03-08T07:45:52;13.07;;;9.40;;
69890;SDS011;57170;43.964;21.262;2024-03-08T07:48:20;9.15;;;8.15;;
69890;SDS011;57170;43.964;21.262;2024-03-08T07:50:46;9.20;;;7.68;;
69890;SDS011;57170;43.964;21.262;2024-03-08T07:53:14;9.85;;;8.07;;
69890;SDS011;57170;43.964;21.262;2024-03-08T07:55:40;10.27;;;8.80;;
69890;SDS011;57170;43.964;21.262;2024-03-08T07:58:07;10.15;;;8.98;;
69890;SDS011;57170;43.964;21.262;2024-03-08T08:00:36;13.48;;;9.75;;
69890;SDS011;57170;43.964;21.262;2024-03-08T08:03:03;13.82;;;10.30;;
69890;SDS011;57170;43.964;21.262;2024-03-08T08:05:29;10.40;;;9.25;;
69890;SDS011;57170;43.964;21.262;2024-03-08T08:08:01;12.43;;;9.60;;
69890;SDS011;57170;43.964;21.262;2024-03-08T08:10:29;9.98;;;8.20;;
69890;SDS011;57170;43.964;21.262;2024-03-08T08:12:55;11.38;;;8.88;;
69890;SDS011;57170;43.964;21.262;2024-03-08T08:15:22;11.73;;;8.38;;
69890;SDS011;57170;43.964;21.262;2024-03-08T08:17:48;9.82;;;7.63;;
69890;SDS011;57170;43.964;21.262;2024-03-08T08:20:14;10.45;;;8.98;;
69890;SDS011;57170;43.964;21.262;2024-03-08T08:22:40;9.93;;;8.48;;
69890;SDS011;57170;43.964;21.262;2024-03-08T08:25:08;8.63;;;7.72;;
69890;SDS011;57170;43.964;21.262;2024-03-08T08:27:38;9.18;;;8.30;;
69890;SDS011;57170;43.964;21.262;2024-03-08T08:30:10;8.93;;;7.38;;
69890;SDS011;57170;43.964;21.262;2024-03-08T08:32:36;10.15;;;8.27;;
69890;SDS011;57170;43.964;21.262;2024-03-08T08:35:04;11.35;;;8.73;;
69890;SDS011;57170;43.964;21.262;2024-03-08T08:37:31;10.23;;;8.63;;
69890;SDS011;57170;43.964;21.262;2024-03-08T08:39:57;9.05;;;8.15;;
69890;SDS011;57170;43.964;21.262;2024-03-08T08:42:24;9.73;;;8.73;;
69890;SDS011;57170;43.964;21.262;2024-03-08T08:44:50;10.75;;;9.15;;
69890;SDS011;57170;43.964;21.262;2024-03-08T08:47:17;9.30;;;8.40;;
69890;SDS011;57170;43.964;21.262;2024-03-08T08:49:44;10.10;;;9.05;;
69890;SDS011;57170;43.964;21.262;2024-03-08T08:52:11;9.43;;;8.15;;
69890;SDS011;57170;43.964;21.262;2024-03-08T08:54:38;9.15;;;8.25;;
69890;SDS011;57170;43.964;21.262;2024-03-08T08:57:04;9.70;;;8.55;;
69890;SDS011;57170;43.964;21.262;2024-03-08T08:59:33;11.10;;;8.40;;
69890;SDS011;57170;43.964;21.262;2024-03-08T09:02:05;11.05;;;9.10;;
69890;SDS011;57170;43.964;21.262;2024-03-08T09:04:31;12.45;;;9.88;;
69890;SDS011;57170;43.964;21.262;2024-03-08T09:06:57;9.15;;;7.80;;
69890;SDS011;57170;43.964;21.262;2024-03-08T09:09:23;10.52;;;8.10;;
69890;SDS011;57170;43.964;21.262;2024-03-08T09:11:50;12.90;;;9.75;;
69890;SDS011;57170;43.964;21.262;2024-03-08T09:14:19;11.68;;;9.45;;
69890;SDS011;57170;43.964;21.262;2024-03-08T09:16:45;13.73;;;9.90;;
69890;SDS011;57170;43.964;21.262;2024-03-08T09:19:12;10.20;;;7.97;;
69890;SDS011;57170;43.964;21.262;2024-03-08T09:21:38;8.40;;;7.03;;
69890;SDS011;57170;43.964;21.262;2024-03-08T09:24:05;11.25;;;9.02;;
69890;SDS011;57170;43.964;21.262;2024-03-08T09:26:32;12.13;;;9.60;;
69890;SDS011;57170;43.964;21.262;2024-03-08T09:28:58;11.15;;;9.43;;
69890;SDS011;57170;43.964;21.262;2024-03-08T09:31:25;11.20;;;8.48;;
69890;SDS011;57170;43.964;21.262;2024-03-08T09:33:51;10.13;;;7.65;;
69890;SDS011;57170;43.964;21.262;2024-03-08T09:36:17;10.23;;;8.35;;
69890;SDS011;57170;43.964;21.262;2024-03-08T09:38:43;12.35;;;10.10;;
69890;SDS011;57170;43.964;21.262;2024-03-08T09:41:09;11.65;;;9.85;;
69890;SDS011;57170;43.964;21.262;2024-03-08T09:43:36;11.57;;;10.38;;
69890;SDS011;57170;43.964;21.262;2024-03-08T09:46:03;12.75;;;11.45;;
69890;SDS011;57170;43.964;21.262;2024-03-08T09:48:31;12.85;;;11.20;;
69890;SDS011;57170;43.964;21.262;2024-03-08T09:50:58;11.10;;;9.88;;
69890;SDS011;57170;43.964;21.262;2024-03-08T09:53:24;13.35;;;12.02;;
69890;SDS011;57170;43.964;21.262;2024-03-08T09:55:50;12.95;;;11.60;;
69890;SDS011;57170;43.964;21.262;2024-03-08T09:58:17;12.18;;;10.77;;
69890;SDS011;57170;43.964;21.262;2024-03-08T10:00:46;14.10;;;12.23;;
69890;SDS011;57170;43.964;21.262;2024-03-08T10:03:12;13.52;;;11.80;;
69890;SDS011;57170;43.964;21.262;2024-03-08T10:05:41;13.32;;;10.70;;
69890;SDS011;57170;43.964;21.262;2024-03-08T10:08:09;12.43;;;11.07;;
69890;SDS011;57170;43.964;21.262;2024-03-08T10:10:36;15.02;;;12.75;;
69890;SDS011;57170;43.964;21.262;2024-03-08T10:13:09;14.90;;;11.98;;
69890;SDS011;57170;43.964;21.262;2024-03-08T10:15:37;13.90;;;12.52;;
69890;SDS011;57170;43.964;21.262;2024-03-08T10:18:05;14.27;;;12.05;;
69890;SDS011;57170;43.964;21.262;2024-03-08T10:20:32;13.70;;;12.27;;
69890;SDS011;57170;43.964;21.262;2024-03-08T10:23:01;14.00;;;12.40;;
69890;SDS011;57170;43.964;21.262;2024-03-08T10:25:28;14.43;;;12.93;;
69890;SDS011;57170;43.964;21.262;2024-03-08T10:27:57;19.35;;;14.88;;
69890;SDS011;57170;43.964;21.262;2024-03-08T10:30:23;15.75;;;13.98;;
69890;SDS011;57170;43.964;21.262;2024-03-08T10:32:50;15.38;;;13.10;;
69890;SDS011;57170;43.964;21.262;2024-03-08T10:35:16;16.80;;;13.02;;
69890;SDS011;57170;43.964;21.262;2024-03-08T10:40:21;15.20;;;12.13;;
69890;SDS011;57170;43.964;21.262;2024-03-08T10:42:52;16.80;;;12.23;;
69890;SDS011;57170;43.964;21.262;2024-03-08T10:47:47;16.45;;;14.52;;
69890;SDS011;57170;43.964;21.262;2024-03-08T10:50:18;15.57;;;13.98;;
69890;SDS011;57170;43.964;21.262;2024-03-08T10:52:50;14.55;;;12.75;;
69890;SDS011;57170;43.964;21.262;2024-03-08T10:55:17;16.67;;;13.40;;
69890;SDS011;57170;43.964;21.262;2024-03-08T10:57:45;17.50;;;13.65;;
69890;SDS011;57170;43.964;21.262;2024-03-08T11:00:12;14.00;;;12.50;;
69890;SDS011;57170;43.964;21.262;2024-03-08T11:02:42;17.00;;;14.10;;
69890;SDS011;57170;43.964;21.262;2024-03-08T11:05:31;16.35;;;13.05;;
69890;SDS011;57170;43.964;21.262;2024-03-08T11:08:00;15.50;;;13.30;;
69890;SDS011;57170;43.964;21.262;2024-03-08T11:10:27;14.45;;;12.90;;
69890;SDS011;57170;43.964;21.262;2024-03-08T11:12:53;16.20;;;14.43;;
69890;SDS011;57170;43.964;21.262;2024-03-08T11:15:19;19.25;;;12.88;;
69890;SDS011;57170;43.964;21.262;2024-03-08T11:17:49;16.75;;;13.75;;
69890;SDS011;57170;43.964;21.262;2024-03-08T11:20:16;16.17;;;13.65;;
69890;SDS011;57170;43.964;21.262;2024-03-08T11:25:32;11.90;;;10.13;;
69890;SDS011;57170;43.964;21.262;2024-03-08T11:28:08;15.80;;;12.33;;
69890;SDS011;57170;43.964;21.262;2024-03-08T11:30:34;13.50;;;11.43;;
69890;SDS011;57170;43.964;21.262;2024-03-08T11:33:01;13.90;;;11.13;;
69890;SDS011;57170;43.964;21.262;2024-03-08T11:35:28;14.45;;;12.27;;
69890;SDS011;57170;43.964;21.262;2024-03-08T11:37:57;14.82;;;12.70;;
69890;SDS011;57170;43.964;21.262;2024-03-08T11:40:25;16.17;;;12.95;;
69890;SDS011;57170;43.964;21.262;2024-03-08T11:42:52;15.13;;;12.30;;
69890;SDS011;57170;43.964;21.262;2024-03-08T11:45:20;14.18;;;12.13;;
69890;SDS011;57170;43.964;21.262;2024-03-08T11:47:46;13.10;;;10.50;;
69890;SDS011;57170;43.964;21.262;2024-03-08T11:50:13;18.92;;;13.75;;
69890;SDS011;57170;43.964;21.262;2024-03-08T11:52:39;17.02;;;13.43;;
69890;SDS011;57170;43.964;21.262;2024-03-08T11:55:05;15.95;;;11.77;;
69890;SDS011;57170;43.964;21.262;2024-03-08T11:57:32;14.10;;;10.48;;
69890;SDS011;57170;43.964;21.262;2024-03-08T11:59:58;13.82;;;12.30;;
69890;SDS011;57170;43.964;21.262;2024-03-08T12:02:34;14.30;;;12.80;;
69890;SDS011;57170;43.964;21.262;2024-03-08T12:05:03;15.23;;;12.30;;
69890;SDS011;57170;43.964;21.262;2024-03-08T12:07:31;12.93;;;11.05;;
69890;SDS011;57170;43.964;21.262;2024-03-08T12:12:57;18.30;;;13.15;;
69890;SDS011;57170;43.964;21.262;2024-03-08T12:15:28;16.35;;;13.15;;
69890;SDS011;57170;43.964;21.262;2024-03-08T12:17:54;14.43;;;11.85;;
69890;SDS011;57170;43.964;21.262;2024-03-08T12:20:27;16.02;;;14.00;;
69890;SDS011;57170;43.964;21.262;2024-03-08T12:22:57;15.18;;;12.10;;
69890;SDS011;57170;43.964;21.262;2024-03-08T12:25:33;14.02;;;12.05;;
69890;SDS011;57170;43.964;21.262;2024-03-08T12:30:48;17.40;;;12.13;;
69890;SDS011;57170;43.964;21.262;2024-03-08T12:33:16;13.95;;;10.85;;
69890;SDS011;57170;43.964;21.262;2024-03-08T12:35:49;14.32;;;11.15;;
69890;SDS011;57170;43.964;21.262;2024-03-08T12:38:18;18.00;;;14.07;;
69890;SDS011;57170;43.964;21.262;2024-03-08T12:40:45;17.38;;;12.52;;
69890;SDS011;57170;43.964;21.262;2024-03-08T12:43:11;15.90;;;12.48;;
69890;SDS011;57170;43.964;21.262;2024-03-08T12:45:37;15.10;;;11.45;;
69890;SDS011;57170;43.964;21.262;2024-03-08T12:48:03;14.70;;;10.65;;
69890;SDS011;57170;43.964;21.262;2024-03-08T12:50:39;17.40;;;11.02;;
69890;SDS011;57170;43.964;21.262;2024-03-08T12:53:05;16.42;;;12.18;;
69890;SDS011;57170;43.964;21.262;2024-03-08T12:55:31;15.82;;;11.27;;
69890;SDS011;57170;43.964;21.262;2024-03-08T12:57:58;15.13;;;12.05;;
69890;SDS011;57170;43.964;21.262;2024-03-08T13:00:25;16.98;;;12.02;;
69890;SDS011;57170;43.964;21.262;2024-03-08T13:02:53;15.95;;;11.52;;
69890;SDS011;57170;43.964;21.262;2024-03-08T13:05:20;14.30;;;11.73;;
69890;SDS011;57170;43.964;21.262;2024-03-08T13:07:47;13.43;;;11.00;;
69890;SDS011;57170;43.964;21.262;2024-03-08T13:10:14;14.77;;;11.35;;
69890;SDS011;57170;43.964;21.262;2024-03-08T13:12:43;13.55;;;11.63;;
69890;SDS011;57170;43.964;21.262;2024-03-08T13:15:10;15.10;;;11.75;;
69890;SDS011;57170;43.964;21.262;2024-03-08T13:17:40;15.75;;;13.80;;
69890;SDS011;57170;43.964;21.262;2024-03-08T13:20:07;17.73;;;12.82;;
69890;SDS011;57170;43.964;21.262;2024-03-08T13:22:34;15.50;;;12.20;;
69890;SDS011;57170;43.964;21.262;2024-03-08T13:25:01;15.13;;;11.98;;
69890;SDS011;57170;43.964;21.262;2024-03-08T13:27:27;13.93;;;11.23;;
69890;SDS011;57170;43.964;21.262;2024-03-08T13:29:54;15.45;;;11.23;;
69890;SDS011;57170;43.964;21.262;2024-03-08T13:32:20;16.50;;;10.95;;
69890;SDS011;57170;43.964;21.262;2024-03-08T13:34:47;13.75;;;11.68;;
69890;SDS011;57170;43.964;21.262;2024-03-08T13:37:13;16.88;;;12.10;;
69890;SDS011;57170;43.964;21.262;2024-03-08T13:39:41;11.88;;;10.50;;
69890;SDS011;57170;43.964;21.262;2024-03-08T13:42:11;16.42;;;11.80;;
69890;SDS011;57170;43.964;21.262;2024-03-08T13:44:39;14.18;;;11.18;;
69890;SDS011;57170;43.964;21.262;2024-03-08T13:47:05;12.95;;;10.13;;
69890;SDS011;57170;43.964;21.262;2024-03-08T13:49:32;15.35;;;11.77;;
69890;SDS011;57170;43.964;21.262;2024-03-08T13:51:58;16.80;;;11.23;;
69890;SDS011;57170;43.964;21.262;2024-03-08T13:54:24;14.65;;;10.90;;
69890;SDS011;57170;43.964;21.262;2024-03-08T13:56:51;13.02;;;10.15;;
69890;SDS011;57170;43.964;21.262;2024-03-08T13:59:19;14.95;;;12.15;;
69890;SDS011;57170;43.964;21.262;2024-03-08T14:01:47;13.27;;;9.55;;
69890;SDS011;57170;43.964;21.262;2024-03-08T14:04:14;15.50;;;11.13;;
69890;SDS011;57170;43.964;21.262;2024-03-08T14:06:43;11.77;;;8.52;;
69890;SDS011;57170;43.964;21.262;2024-03-08T14:09:12;12.35;;;10.25;;
69890;SDS011;57170;43.964;21.262;2024-03-08T14:11:42;12.05;;;9.52;;
69890;SDS011;57170;43.964;21.262;2024-03-08T14:14:11;13.02;;;11.23;;
69890;SDS011;57170;43.964;21.262;2024-03-08T14:16:38;16.65;;;11.80;;
69890;SDS011;57170;43.964;21.262;2024-03-08T14:19:05;20.77;;;14.48;;
69890;SDS011;57170;43.964;21.262;2024-03-08T14:21:31;14.32;;;11.25;;
69890;SDS011;57170;43.964;21.262;2024-03-08T14:23:58;13.75;;;10.75;;
69890;SDS011;57170;43.964;21.262;2024-03-08T14:26:24;14.43;;;10.43;;
69890;SDS011;57170;43.964;21.262;2024-03-08T14:28:51;15.57;;;12.05;;